Time;durP1;ratioP1;P1;durP2;ratioP2;P2;SDS_P1;SDS_P2;PMS_P1;PMS_P2;Temp;Humidity;BMP_temperature;BMP_pressure;BME280_temperature;BME280_humidity;BME280_pressure;Samples;Min_cycle;Max_cycle;Signal;HPM_P1;HPM_P2
2023/06/21 00:00:18;;;;;;;4.17;1.77;;;20.70;99.90;;;;;;5092234;28;20332;-59
2023/06/21 00:02:50;;;;;;;3.20;1.47;;;20.60;99.90;;;;;;5074622;28;20647;-59
2023/06/21 00:05:18;;;;;;;6.93;1.63;;;20.60;99.90;;;;;;5092570;28;20267;-58
2023/06/21 00:07:47;;;;;;;4.53;1.67;;;20.50;99.90;;;;;;5092461;28;20230;-58
2023/06/21 00:10:16;;;;;;;2.70;1.47;;;20.30;99.90;;;;;;5080703;28;20610;-58
2023/06/21 00:12:45;;;;;;;4.43;1.80;;;20.20;99.90;;;;;;5078799;28;20261;-58
2023/06/21 00:15:13;;;;;;;3.30;1.53;;;20.20;99.90;;;;;;5104287;28;20235;-58
2023/06/21 00:17:41;;;;;;;4.77;1.80;;;20.20;99.90;;;;;;5104531;28;20218;-58
2023/06/21 00:20:11;;;;;;;6.33;1.83;;;20.10;99.90;;;;;;5105193;28;20595;-58
2023/06/21 00:22:40;;;;;;;3.00;1.60;;;20.10;99.90;;;;;;5112661;28;20218;-58
2023/06/21 00:25:09;;;;;;;3.17;1.60;;;20.10;99.90;;;;;;5098255;28;20224;-58
2023/06/21 00:27:37;;;;;;;4.57;1.77;;;20.00;99.90;;;;;;5092075;28;20229;-59
2023/06/21 00:30:08;;;;;;;3.53;1.87;;;20.00;99.90;;;;;;5092356;28;20689;-58
2023/06/21 00:32:38;;;;;;;3.60;1.60;;;20.00;99.90;;;;;;5091867;28;20237;-59
2023/06/21 00:35:07;;;;;;;4.03;1.70;;;20.00;99.90;;;;;;5088458;28;20696;-58
2023/06/21 00:37:37;;;;;;;3.27;1.63;;;20.00;99.90;;;;;;5092018;28;20248;-58
2023/06/21 00:40:10;;;;;;;3.70;1.40;;;20.00;99.90;;;;;;5063162;28;20279;-58
2023/06/21 00:42:38;;;;;;;4.33;1.50;;;20.00;99.90;;;;;;5077711;28;20258;-58
2023/06/21 00:45:15;;;;;;;3.93;1.77;;;20.00;99.90;;;;;;5089686;28;20221;-58
2023/06/21 00:47:45;;;;;;;2.53;1.73;;;20.00;99.90;;;;;;5090881;28;20824;-58
2023/06/21 00:50:14;;;;;;;4.13;1.60;;;19.90;99.90;;;;;;5077007;28;20709;-58
2023/06/21 00:52:43;;;;;;;2.53;1.30;;;19.90;99.90;;;;;;5077621;28;20250;-58
2023/06/21 00:55:13;;;;;;;5.37;1.57;;;19.90;99.90;;;;;;5080725;28;20697;-58
2023/06/21 00:57:44;;;;;;;4.30;1.43;;;19.80;99.90;;;;;;5081794;28;20740;-58
2023/06/21 01:00:20;;;;;;;2.40;1.50;;;19.80;99.90;;;;;;5075064;28;20219;-57
2023/06/21 01:02:48;;;;;;;4.20;1.30;;;19.80;99.90;;;;;;5075356;28;20744;-58
2023/06/21 01:05:17;;;;;;;4.00;1.60;;;19.80;99.90;;;;;;5075483;28;20230;-58
2023/06/21 01:07:55;;;;;;;2.97;1.70;;;19.80;99.90;;;;;;5079788;28;20625;-58
2023/06/21 01:10:35;;;;;;;3.23;1.60;;;19.80;99.90;;;;;;5093990;28;20222;-57
2023/06/21 01:13:13;;;;;;;4.03;1.73;;;19.80;99.90;;;;;;5080563;28;20248;-59
2023/06/21 01:15:47;;;;;;;2.83;1.50;;;19.70;99.90;;;;;;5097844;28;20246;-58
2023/06/21 01:18:18;;;;;;;2.60;1.60;;;19.70;99.90;;;;;;5097163;28;20210;-59
2023/06/21 01:20:53;;;;;;;3.57;1.93;;;19.70;99.90;;;;;;5113132;28;20600;-58
2023/06/21 01:23:40;;;;;;;2.83;1.90;;;19.60;99.90;;;;;;5115770;28;20220;-57
2023/06/21 01:26:13;;;;;;;3.10;2.20;;;19.50;99.90;;;;;;5088639;28;20222;-57
2023/06/21 01:29:10;;;;;;;3.37;2.17;;;19.50;99.90;;;;;;5095150;28;20616;-58
2023/06/21 01:31:40;;;;;;;3.33;1.93;;;19.50;99.90;;;;;;5094686;28;20714;-58
2023/06/21 01:34:10;;;;;;;4.60;2.27;;;19.50;99.90;;;;;;5095097;28;20280;-59
2023/06/21 01:36:39;;;;;;;4.40;2.00;;;19.40;99.90;;;;;;5094956;28;20294;-57
2023/06/21 01:39:09;;;;;;;3.03;2.03;;;19.40;99.90;;;;;;5094045;28;20226;-59
2023/06/21 01:41:37;;;;;;;4.57;2.10;;;19.40;99.90;;;;;;5087020;28;20268;-58
2023/06/21 01:44:09;;;;;;;2.27;2.03;;;19.40;99.90;;;;;;5083172;28;20321;-59
2023/06/21 01:46:39;;;;;;;4.87;2.10;;;19.40;99.90;;;;;;5099777;28;20219;-57
2023/06/21 01:49:10;;;;;;;3.87;2.20;;;19.30;99.90;;;;;;5106704;28;20217;-58
2023/06/21 01:51:40;;;;;;;4.90;2.17;;;19.40;99.90;;;;;;5114072;28;20252;-58
2023/06/21 01:54:09;;;;;;;2.70;1.93;;;19.40;99.90;;;;;;5092436;28;20316;-58
2023/06/21 01:56:38;;;;;;;3.23;2.03;;;19.40;99.90;;;;;;5071135;28;20639;-58
2023/06/21 01:59:08;;;;;;;3.50;2.40;;;19.40;99.90;;;;;;5068700;28;20222;-57
2023/06/21 02:01:40;;;;;;;5.10;2.33;;;19.30;99.90;;;;;;5075663;28;20711;-58
2023/06/21 02:04:10;;;;;;;4.30;3.10;;;19.30;99.90;;;;;;5074451;28;20223;-58
2023/06/21 02:06:40;;;;;;;4.27;2.53;;;19.30;99.90;;;;;;5056158;28;20235;-58
2023/06/21 02:09:09;;;;;;;4.30;2.70;;;19.30;99.90;;;;;;5074253;28;20769;-58
2023/06/21 02:11:40;;;;;;;3.90;2.30;;;19.30;99.90;;;;;;5075240;28;20643;-58
2023/06/21 02:14:11;;;;;;;5.30;2.73;;;19.20;99.90;;;;;;5082309;28;20309;-57
2023/06/21 02:16:39;;;;;;;4.57;2.60;;;19.20;99.90;;;;;;5075780;28;20225;-57
2023/06/21 02:19:07;;;;;;;3.93;2.90;;;19.20;99.90;;;;;;5098059;28;20767;-57
2023/06/21 02:21:37;;;;;;;4.37;2.70;;;19.10;99.90;;;;;;5114499;28;20222;-57
2023/06/21 02:24:06;;;;;;;3.80;2.90;;;19.10;99.90;;;;;;5092184;28;20252;-57
2023/06/21 02:26:36;;;;;;;5.80;2.90;;;19.10;99.90;;;;;;5070030;28;20697;-57
2023/06/21 02:29:04;;;;;;;4.87;2.90;;;19.10;99.90;;;;;;5094100;28;20226;-57
2023/06/21 02:31:34;;;;;;;3.60;3.10;;;19.10;99.90;;;;;;5070661;28;20305;-57
2023/06/21 02:34:02;;;;;;;4.07;3.03;;;19.10;99.90;;;;;;5093672;28;20221;-57
2023/06/21 02:36:30;;;;;;;4.80;3.10;;;19.00;99.90;;;;;;5075571;28;20295;-57
2023/06/21 02:38:59;;;;;;;5.90;3.20;;;19.00;99.90;;;;;;5093925;28;20206;-57
2023/06/21 02:41:27;;;;;;;7.30;3.00;;;19.00;99.90;;;;;;5083335;28;20629;-57
2023/06/21 02:43:55;;;;;;;4.43;3.33;;;19.00;99.90;;;;;;5097690;28;20217;-57
2023/06/21 02:46:23;;;;;;;4.17;2.83;;;19.00;99.90;;;;;;5103251;28;20228;-57
2023/06/21 02:48:53;;;;;;;3.50;2.87;;;19.00;99.90;;;;;;5103757;28;20279;-56
2023/06/21 02:51:24;;;;;;;4.03;3.60;;;18.90;99.90;;;;;;5114040;28;20680;-57
2023/06/21 02:53:53;;;;;;;4.47;3.37;;;19.00;99.90;;;;;;5111763;28;20562;-57
2023/06/21 02:56:21;;;;;;;4.73;3.40;;;18.90;99.90;;;;;;5089053;28;20304;-57
2023/06/21 02:58:49;;;;;;;3.80;3.00;;;18.90;99.90;;;;;;5093691;28;20691;-57
2023/06/21 03:01:17;;;;;;;5.03;3.53;;;18.90;99.90;;;;;;5093007;28;20316;-55
2023/06/21 03:03:45;;;;;;;4.90;3.47;;;18.80;99.90;;;;;;5074995;28;20230;-57
2023/06/21 03:06:14;;;;;;;5.60;4.33;;;18.90;99.90;;;;;;5093409;28;20239;-57
2023/06/21 03:08:43;;;;;;;4.20;3.80;;;18.90;99.90;;;;;;5093088;28;20268;-57
2023/06/21 03:11:12;;;;;;;5.50;3.80;;;18.90;99.90;;;;;;5099883;28;20357;-57
2023/06/21 03:13:40;;;;;;;4.40;3.80;;;18.90;99.90;;;;;;5099400;28;20221;-58
2023/06/21 03:16:10;;;;;;;5.70;3.83;;;18.90;99.90;;;;;;5074830;28;20217;-57
2023/06/21 03:18:38;;;;;;;5.33;4.07;;;19.00;99.90;;;;;;5101095;28;20308;-57
2023/06/21 03:21:06;;;;;;;4.50;4.03;;;19.00;99.90;;;;;;5100510;28;20227;-57
2023/06/21 03:23:36;;;;;;;4.93;4.43;;;19.00;99.90;;;;;;5077086;28;20312;-57
2023/06/21 03:26:04;;;;;;;6.80;5.07;;;19.00;99.90;;;;;;5087795;28;20232;-57
2023/06/21 03:28:32;;;;;;;6.33;5.73;;;19.00;99.90;;;;;;5092781;28;20235;-57
2023/06/21 03:31:01;;;;;;;5.93;5.07;;;19.00;99.90;;;;;;5063801;28;20605;-57
2023/06/21 03:33:29;;;;;;;6.13;5.53;;;19.00;99.90;;;;;;5054850;28;20280;-57
2023/06/21 03:35:57;;;;;;;6.77;5.10;;;19.10;99.90;;;;;;5072694;28;20305;-57
2023/06/21 03:38:25;;;;;;;6.43;5.70;;;19.10;99.90;;;;;;5054659;28;20229;-57
2023/06/21 03:40:54;;;;;;;6.23;5.57;;;19.20;99.90;;;;;;5055753;28;20750;-57
2023/06/21 03:43:23;;;;;;;7.10;6.40;;;19.30;99.90;;;;;;5061806;28;20227;-57
2023/06/21 03:45:51;;;;;;;6.77;6.07;;;19.40;99.90;;;;;;5074605;28;20233;-57
2023/06/21 03:48:19;;;;;;;7.00;5.97;;;19.40;99.90;;;;;;5101000;28;20249;-57
2023/06/21 03:50:47;;;;;;;7.17;6.43;;;19.40;99.90;;;;;;5100752;28;20275;-57
2023/06/21 03:53:15;;;;;;;7.83;7.13;;;19.40;99.90;;;;;;5091964;28;20221;-57
2023/06/21 03:55:44;;;;;;;8.70;7.90;;;19.50;99.90;;;;;;5074344;28;20780;-57
2023/06/21 03:58:13;;;;;;;8.70;7.90;;;19.60;99.90;;;;;;5074005;28;20770;-58
2023/06/21 04:00:42;;;;;;;8.07;7.30;;;19.60;99.90;;;;;;5053916;28;20257;-57
2023/06/21 04:03:10;;;;;;;8.77;7.93;;;19.50;99.90;;;;;;5072543;28;20363;-57
2023/06/21 04:05:38;;;;;;;8.87;7.97;;;19.50;99.90;;;;;;5054378;28;20233;-58
2023/06/21 04:08:06;;;;;;;9.67;8.40;;;19.60;99.90;;;;;;5054424;28;20597;-57
2023/06/21 04:10:34;;;;;;;8.33;7.53;;;19.60;99.90;;;;;;5054199;28;20268;-57
2023/06/21 04:13:02;;;;;;;11.43;10.23;;;19.60;99.90;;;;;;5064130;28;20612;-58
2023/06/21 04:15:33;;;;;;;13.07;11.37;;;19.50;99.90;;;;;;5057386;28;20261;-57
2023/06/21 04:18:01;;;;;;;13.90;12.40;;;19.50;99.90;;;;;;5078224;28;20236;-56
2023/06/21 04:20:31;;;;;;;14.17;12.67;;;19.50;99.90;;;;;;5094026;28;20327;-57
2023/06/21 04:23:00;;;;;;;15.00;13.50;;;19.50;99.90;;;;;;5101697;28;20230;-57
2023/06/21 04:25:28;;;;;;;15.20;13.67;;;19.50;99.90;;;;;;5076674;28;20280;-57
2023/06/21 04:27:56;;;;;;;16.93;14.33;;;19.50;99.90;;;;;;5083805;28;20697;-57
2023/06/21 04:30:24;;;;;;;16.73;15.00;;;19.50;99.90;;;;;;5057624;28;20226;-56
2023/06/21 04:32:53;;;;;;;20.93;17.30;;;19.50;99.90;;;;;;5076074;28;20225;-57
2023/06/21 04:35:22;;;;;;;19.80;17.77;;;19.60;99.90;;;;;;5076093;28;20705;-56
2023/06/21 04:37:50;;;;;;;19.30;17.20;;;19.60;99.90;;;;;;5075801;28;20226;-57
2023/06/21 04:40:19;;;;;;;22.53;20.03;;;19.60;99.90;;;;;;5075922;28;20222;-57
2023/06/21 04:42:54;;;;;;;24.90;21.97;;;19.60;99.90;;;;;;5082422;28;20224;-57
2023/06/21 04:45:23;;;;;;;25.57;22.83;;;19.70;99.90;;;;;;5079870;28;20219;-57
2023/06/21 04:47:57;;;;;;;25.83;23.13;;;19.70;99.90;;;;;;5092187;28;20689;-57
2023/06/21 04:50:26;;;;;;;28.40;25.37;;;19.70;99.90;;;;;;5095824;28;20233;-58
2023/06/21 04:52:57;;;;;;;27.37;24.47;;;19.70;99.90;;;;;;5095962;28;20221;-57
2023/06/21 04:55:27;;;;;;;28.23;25.20;;;19.80;99.90;;;;;;5099198;28;20267;-57
2023/06/21 04:57:58;;;;;;;28.03;25.23;;;19.80;99.90;;;;;;5091273;28;20268;-57
2023/06/21 05:00:26;;;;;;;28.80;25.80;;;19.80;99.90;;;;;;5093380;28;20620;-57
2023/06/21 05:02:56;;;;;;;31.93;26.70;;;19.90;99.90;;;;;;5095715;28;20226;-57
2023/06/21 05:05:25;;;;;;;29.20;26.10;;;19.90;99.90;;;;;;5095693;28;20226;-57
2023/06/21 05:07:53;;;;;;;30.73;27.53;;;20.00;99.90;;;;;;5095625;28;20749;-57
2023/06/21 05:10:21;;;;;;;31.37;28.07;;;20.10;99.90;;;;;;5095582;28;20735;-57
2023/06/21 05:12:49;;;;;;;31.57;28.17;;;20.10;99.90;;;;;;5093344;28;20217;-57
2023/06/21 05:15:17;;;;;;;30.37;27.23;;;20.20;99.90;;;;;;5088151;28;20322;-57
2023/06/21 05:17:45;;;;;;;31.47;28.17;;;20.20;99.90;;;;;;5088157;28;20224;-57
2023/06/21 05:20:14;;;;;;;33.07;29.57;;;20.40;99.90;;;;;;5101936;28;20299;-57
2023/06/21 05:22:43;;;;;;;32.03;28.77;;;20.50;99.90;;;;;;5094789;28;20222;-57
2023/06/21 05:25:11;;;;;;;31.23;27.83;;;20.60;99.90;;;;;;5094391;28;20626;-57
2023/06/21 05:27:39;;;;;;;31.83;28.50;;;20.70;99.90;;;;;;5093452;28;20222;-57
2023/06/21 05:30:08;;;;;;;31.33;27.93;;;20.90;99.90;;;;;;5094769;28;20223;-57
2023/06/21 05:32:36;;;;;;;31.13;28.03;;;20.90;99.90;;;;;;5079188;28;20231;-57
2023/06/21 05:35:05;;;;;;;31.10;28.00;;;20.90;99.90;;;;;;5074925;28;20599;-57
2023/06/21 05:37:35;;;;;;;31.57;28.37;;;20.80;99.90;;;;;;5086943;28;20223;-57
2023/06/21 05:40:03;;;;;;;30.97;27.80;;;20.90;99.90;;;;;;5094577;28;20301;-57
2023/06/21 05:42:32;;;;;;;29.37;26.47;;;20.90;99.90;;;;;;5093212;28;20591;-57
2023/06/21 05:45:00;;;;;;;30.97;27.93;;;21.30;99.90;;;;;;5094505;28;20249;-57
2023/06/21 05:47:28;;;;;;;28.93;26.13;;;21.60;99.90;;;;;;5094514;28;20267;-56
2023/06/21 05:49:56;;;;;;;26.90;24.40;;;22.00;99.90;;;;;;5090206;28;20235;-57
2023/06/21 05:52:24;;;;;;;28.10;25.20;;;22.30;99.90;;;;;;5091527;28;20219;-56
2023/06/21 05:54:54;;;;;;;29.03;25.97;;;22.30;99.90;;;;;;5095258;28;20225;-57
2023/06/21 05:57:24;;;;;;;28.63;25.77;;;22.30;99.90;;;;;;5094120;28;20626;-57
2023/06/21 05:59:52;;;;;;;27.63;24.77;;;22.20;99.90;;;;;;5085301;28;20252;-57
2023/06/21 06:02:20;;;;;;;25.87;23.43;;;22.20;99.90;;;;;;5091218;28;20230;-57
2023/06/21 06:04:49;;;;;;;26.03;23.43;;;22.30;99.90;;;;;;5094638;28;20670;-57
2023/06/21 06:07:19;;;;;;;25.80;23.17;;;22.50;99.90;;;;;;5094605;28;20222;-57
2023/06/21 06:09:47;;;;;;;26.03;23.57;;;22.60;99.90;;;;;;5094275;28;20226;-57
2023/06/21 06:12:17;;;;;;;26.53;23.93;;;22.60;99.90;;;;;;5093499;28;20256;-58
2023/06/21 06:14:45;;;;;;;28.60;24.13;;;22.40;99.90;;;;;;5091799;28;20233;-57
2023/06/21 06:17:13;;;;;;;27.77;25.07;;;22.20;99.90;;;;;;5092301;28;20301;-57
2023/06/21 06:19:41;;;;;;;28.57;25.80;;;22.00;99.90;;;;;;5102762;28;20309;-57
2023/06/21 06:22:09;;;;;;;27.27;24.57;;;22.00;99.90;;;;;;5096659;28;20232;-57
2023/06/21 06:24:37;;;;;;;27.73;25.03;;;22.00;99.90;;;;;;5105936;28;20215;-57
2023/06/21 06:27:07;;;;;;;26.50;23.80;;;21.90;99.90;;;;;;5094142;28;20304;-57
2023/06/21 06:29:36;;;;;;;27.90;25.27;;;21.90;99.90;;;;;;5079840;28;20262;-57
2023/06/21 06:32:05;;;;;;;27.60;25.00;;;22.00;99.90;;;;;;5071169;28;20227;-57
2023/06/21 06:34:33;;;;;;;28.50;25.93;;;22.00;99.90;;;;;;5091585;28;20720;-57
2023/06/21 06:37:01;;;;;;;30.30;27.50;;;22.00;99.90;;;;;;5078646;28;20693;-58
2023/06/21 06:39:42;;;;;;;28.87;26.20;;;21.90;99.90;;;;;;5090673;28;20222;-57
2023/06/21 06:42:10;;;;;;;28.90;26.20;;;22.00;99.90;;;;;;5097190;28;20314;-57
2023/06/21 06:44:44;;;;;;;28.13;25.63;;;22.00;99.90;;;;;;5092806;28;20222;-57
2023/06/21 06:47:12;;;;;;;28.77;26.17;;;22.20;99.90;;;;;;5094777;28;20221;-57
2023/06/21 06:49:40;;;;;;;29.80;27.07;;;22.40;99.90;;;;;;5099131;28;20231;-58
2023/06/21 06:52:09;;;;;;;29.33;26.63;;;22.50;99.90;;;;;;5093766;28;20709;-57
2023/06/21 06:54:37;;;;;;;27.43;25.00;;;22.60;99.90;;;;;;5097048;28;20223;-57
2023/06/21 06:57:05;;;;;;;30.50;27.63;;;22.70;99.90;;;;;;5085430;28;20238;-57
2023/06/21 06:59:33;;;;;;;31.63;28.83;;;22.80;99.90;;;;;;5092535;28;20218;-56
2023/06/21 07:02:03;;;;;;;30.90;28.20;;;22.80;99.90;;;;;;5093005;28;20245;-57
2023/06/21 07:04:31;;;;;;;31.10;28.20;;;22.90;99.90;;;;;;5093353;28;20241;-58
2023/06/21 07:07:01;;;;;;;31.10;28.37;;;23.20;99.90;;;;;;5093433;28;20698;-56
2023/06/21 07:09:29;;;;;;;30.00;27.37;;;23.50;99.90;;;;;;5093119;28;20301;-58
2023/06/21 07:11:59;;;;;;;29.13;26.63;;;23.80;99.90;;;;;;5077946;28;20223;-57
2023/06/21 07:14:27;;;;;;;28.97;26.37;;;24.10;99.90;;;;;;5085183;28;20564;-57
2023/06/21 07:16:55;;;;;;;28.33;25.90;;;24.50;99.90;;;;;;5088411;28;20222;-58
2023/06/21 07:19:25;;;;;;;27.93;25.53;;;24.80;99.90;;;;;;5104830;28;20242;-58
2023/06/21 07:21:53;;;;;;;28.83;26.33;;;25.00;99.90;;;;;;5108046;28;20224;-58
2023/06/21 07:24:21;;;;;;;27.27;24.70;;;24.90;99.90;;;;;;5096591;28;20751;-58
2023/06/21 07:26:49;;;;;;;24.07;21.77;;;24.60;99.90;;;;;;5092923;28;20230;-57
2023/06/21 07:29:17;;;;;;;23.10;21.03;;;24.30;99.90;;;;;;5091670;28;20220;-58
2023/06/21 07:31:45;;;;;;;22.20;20.20;;;24.40;99.90;;;;;;5092500;28;20244;-57
2023/06/21 07:34:13;;;;;;;20.20;18.30;;;24.60;99.90;;;;;;5093031;28;20225;-58
2023/06/21 07:36:43;;;;;;;19.40;17.60;;;24.80;99.90;;;;;;5092436;28;20269;-57
2023/06/21 07:39:11;;;;;;;19.07;17.43;;;24.80;99.90;;;;;;5085692;28;20611;-58
2023/06/21 07:41:39;;;;;;;19.40;17.60;;;25.10;99.90;;;;;;5093095;28;20214;-58
2023/06/21 07:44:07;;;;;;;18.73;16.97;;;25.60;99.90;;;;;;5092181;28;20261;-57
2023/06/21 07:46:35;;;;;;;18.67;17.00;;;26.00;99.90;;;;;;5090046;28;20308;-58
2023/06/21 07:49:03;;;;;;;20.23;18.40;;;26.10;99.90;;;;;;5095543;28;20224;-58
2023/06/21 07:51:31;;;;;;;19.80;17.90;;;25.70;99.90;;;;;;5094829;28;20650;-58
2023/06/21 07:54:00;;;;;;;18.70;16.93;;;25.50;99.90;;;;;;5110022;28;20230;-58
2023/06/21 07:56:28;;;;;;;17.67;15.87;;;25.20;99.90;;;;;;5092547;28;20232;-58
2023/06/21 07:58:56;;;;;;;17.37;15.70;;;25.10;99.90;;;;;;5092119;28;20274;-58
2023/06/21 08:01:25;;;;;;;16.90;15.10;;;24.90;99.90;;;;;;5092220;28;20605;-58
2023/06/21 08:03:54;;;;;;;17.10;15.57;;;24.60;99.90;;;;;;5092700;28;20257;-58
2023/06/21 08:06:22;;;;;;;16.90;15.20;;;24.60;99.90;;;;;;5092639;28;20221;-57
2023/06/21 08:08:50;;;;;;;15.23;13.73;;;24.90;99.90;;;;;;5092971;28;20325;-58
2023/06/21 08:11:21;;;;;;;15.80;14.37;;;25.40;99.90;;;;;;5092619;28;20230;-58
2023/06/21 08:13:49;;;;;;;15.23;13.77;;;25.90;99.90;;;;;;5092713;28;20225;-57
2023/06/21 08:16:17;;;;;;;14.23;12.87;;;26.40;99.90;;;;;;5072850;28;20222;-57
2023/06/21 08:18:45;;;;;;;13.20;12.00;;;27.10;99.90;;;;;;5098950;28;20221;-57
2023/06/21 08:21:13;;;;;;;14.27;13.00;;;27.60;99.90;;;;;;5112850;28;20225;-59
2023/06/21 08:23:41;;;;;;;13.80;12.40;;;27.50;99.90;;;;;;5112021;28;20225;-57
2023/06/21 08:26:09;;;;;;;15.30;13.80;;;27.50;99.90;;;;;;5092358;28;20218;-58
2023/06/21 08:28:39;;;;;;;14.53;13.17;;;26.90;99.90;;;;;;5092279;28;20315;-58
2023/06/21 08:31:07;;;;;;;14.43;13.00;;;26.40;99.90;;;;;;5091313;28;20332;-58
2023/06/21 08:33:35;;;;;;;13.97;12.57;;;25.80;99.90;;;;;;5092504;28;20264;-58
2023/06/21 08:36:06;;;;;;;13.73;12.43;;;25.90;99.90;;;;;;5092383;28;20232;-58
2023/06/21 08:38:34;;;;;;;13.77;12.47;;;26.10;99.90;;;;;;5089247;28;20726;-58
2023/06/21 08:41:04;;;;;;;11.53;10.33;;;26.80;99.90;;;;;;5092091;28;20224;-58
2023/06/21 08:43:32;;;;;;;12.10;10.93;;;27.40;99.90;;;;;;5092089;28;20295;-58
2023/06/21 08:46:07;;;;;;;14.97;13.47;;;27.60;99.90;;;;;;5089606;28;20221;-58
2023/06/21 08:48:37;;;;;;;14.27;12.87;;;27.50;99.90;;;;;;5096727;28;20338;-58
2023/06/21 08:51:06;;;;;;;14.60;12.53;;;27.60;99.90;;;;;;5112385;28;20747;-58
2023/06/21 08:53:42;;;;;;;13.63;11.53;;;27.50;99.90;;;;;;5095425;28;20620;-58
2023/06/21 08:56:15;;;;;;;13.43;12.03;;;27.50;99.90;;;;;;5092077;28;20248;-57
2023/06/21 08:58:49;;;;;;;12.40;11.27;;;27.20;99.90;;;;;;5092044;28;20250;-58
2023/06/21 09:01:22;;;;;;;12.77;10.63;;;27.60;99.90;;;;;;5074052;28;20227;-58
2023/06/21 09:03:57;;;;;;;11.70;10.53;;;28.20;99.90;;;;;;5079593;28;20222;-58
2023/06/21 09:06:27;;;;;;;11.53;10.43;;;28.50;99.90;;;;;;5090398;28;20229;-58
2023/06/21 09:08:55;;;;;;;12.27;11.07;;;28.30;99.90;;;;;;5095698;28;20246;-57
2023/06/21 09:11:24;;;;;;;13.67;11.37;;;28.10;99.90;;;;;;5095619;28;20330;-58
2023/06/21 09:13:52;;;;;;;12.57;11.27;;;27.70;99.90;;;;;;5095546;28;20678;-57
2023/06/21 09:16:24;;;;;;;13.90;10.50;;;28.20;99.90;;;;;;5090202;28;20232;-58
2023/06/21 09:18:52;;;;;;;11.33;10.03;;;28.60;99.90;;;;;;5104052;28;20252;-58
2023/06/21 09:21:21;;;;;;;11.60;9.83;;;28.90;99.90;;;;;;5095728;28;20583;-58
2023/06/21 09:23:49;;;;;;;11.97;10.80;;;29.30;99.90;;;;;;5083877;28;20271;-58
2023/06/21 09:26:17;;;;;;;11.47;10.43;;;29.20;99.90;;;;;;5095342;28;20309;-58
2023/06/21 09:28:46;;;;;;;10.50;9.50;;;28.80;99.90;;;;;;5095004;28;20321;-58
2023/06/21 09:31:14;;;;;;;10.37;9.43;;;28.70;99.90;;;;;;5093967;28;20567;-58
2023/06/21 09:33:47;;;;;;;12.20;11.10;;;29.30;99.90;;;;;;5095057;28;20729;-57
2023/06/21 09:36:16;;;;;;;12.33;10.53;;;28.80;99.90;;;;;;5095323;28;20219;-58
2023/06/21 09:38:44;;;;;;;10.83;9.63;;;28.50;99.90;;;;;;5095087;28;20261;-57
2023/06/21 09:41:12;;;;;;;11.07;10.07;;;28.70;99.90;;;;;;5095132;28;20305;-58
2023/06/21 09:43:42;;;;;;;11.37;10.30;;;28.30;99.90;;;;;;5094844;28;20210;-58
2023/06/21 09:46:11;;;;;;;11.63;10.43;;;28.00;99.90;;;;;;5093365;28;20235;-58
2023/06/21 09:48:40;;;;;;;11.03;10.00;;;28.30;99.90;;;;;;5100382;28;20226;-57
2023/06/21 09:51:12;;;;;;;12.03;10.60;;;28.10;99.90;;;;;;5107244;28;20230;-57
2023/06/21 09:53:44;;;;;;;10.03;9.13;;;28.00;99.90;;;;;;5097935;28;20225;-58
2023/06/21 09:56:14;;;;;;;9.73;8.80;;;27.80;99.90;;;;;;5094664;28;20306;-58
2023/06/21 09:58:43;;;;;;;8.53;7.73;;;28.20;99.90;;;;;;5076476;28;20265;-58
2023/06/21 10:01:15;;;;;;;8.27;7.47;;;29.00;99.90;;;;;;5087433;28;20239;-57
2023/06/21 10:03:44;;;;;;;9.00;8.10;;;29.60;99.90;;;;;;5074375;28;20230;-58
2023/06/21 10:06:16;;;;;;;8.20;7.40;;;29.60;99.90;;;;;;5069098;28;20223;-58
2023/06/21 10:08:49;;;;;;;8.97;8.07;;;29.90;99.90;;;;;;5090225;28;20717;-58
2023/06/21 10:11:17;;;;;;;8.37;7.57;;;29.90;99.90;;;;;;5093448;28;20755;-58
2023/06/21 10:13:46;;;;;;;8.17;7.37;;;30.00;99.90;;;;;;5093693;28;20674;-57
2023/06/21 10:16:17;;;;;;;7.50;6.80;;;30.20;99.90;;;;;;5088435;28;20579;-58
2023/06/21 10:18:48;;;;;;;8.53;7.67;;;30.30;99.90;;;;;;5096996;28;20224;-56
2023/06/21 10:21:22;;;;;;;7.37;6.67;;;30.40;99.90;;;;;;5104709;28;20291;-57
2023/06/21 10:23:52;;;;;;;8.60;7.80;;;30.60;99.90;;;;;;5093098;28;20214;-58
2023/06/21 10:26:20;;;;;;;9.20;8.40;;;30.50;99.90;;;;;;5093709;28;20218;-58
2023/06/21 10:28:56;;;;;;;9.73;8.80;;;30.30;99.90;;;;;;5093601;28;21753;-58
2023/06/21 10:31:26;;;;;;;9.50;8.70;;;30.20;99.90;;;;;;5091201;28;20309;-58
2023/06/21 10:33:56;;;;;;;11.23;10.13;;;29.90;99.90;;;;;;5092362;28;20268;-58
2023/06/21 10:36:32;;;;;;;9.50;8.13;;;29.50;99.90;;;;;;5093071;28;20220;-58
2023/06/21 10:39:05;;;;;;;10.33;9.33;;;29.90;99.90;;;;;;5091055;28;20639;-58
2023/06/21 10:41:34;;;;;;;9.37;7.53;;;30.20;99.90;;;;;;5093644;28;20215;-58
2023/06/21 10:44:05;;;;;;;9.33;8.37;;;30.70;99.90;;;;;;5093857;28;20220;-58
2023/06/21 10:46:35;;;;;;;8.40;7.70;;;30.50;99.90;;;;;;5091368;28;20310;-58
2023/06/21 10:49:05;;;;;;;8.80;8.10;;;30.80;99.90;;;;;;5093576;28;20250;-58
2023/06/21 10:51:36;;;;;;;7.53;6.83;;;31.10;99.90;;;;;;5093513;28;20240;-58
2023/06/21 10:54:05;;;;;;;10.40;7.43;;;31.40;99.90;;;;;;5097145;28;20585;-58
2023/06/21 10:56:35;;;;;;;8.20;7.50;;;31.70;99.90;;;;;;5093495;28;20244;-58
2023/06/21 10:59:03;;;;;;;7.47;6.80;;;31.70;99.90;;;;;;5093170;28;20222;-58
2023/06/21 11:01:31;;;;;;;8.10;7.40;;;31.50;99.90;;;;;;5092172;28;20238;-58
2023/06/21 11:03:59;;;;;;;7.03;6.33;;;31.60;99.90;;;;;;5093549;28;20218;-58
2023/06/21 11:06:29;;;;;;;8.57;7.77;;;32.00;99.90;;;;;;5091823;28;20776;-58
2023/06/21 11:09:12;;;;;;;8.37;7.17;;;32.00;99.90;;;;;;5092662;28;20682;-58
2023/06/21 11:11:51;;;;;;;7.37;6.63;;;31.80;99.90;;;;;;5093275;28;20609;-58
2023/06/21 11:14:26;;;;;;;8.20;7.40;;;32.30;99.90;;;;;;5093401;28;20226;-58
2023/06/21 11:17:07;;;;;;;8.43;7.63;;;32.00;99.90;;;;;;5087491;28;20248;-58
2023/06/21 11:19:37;;;;;;;7.70;7.10;;;31.70;99.90;;;;;;5091599;28;20255;-58
2023/06/21 11:22:16;;;;;;;9.40;8.57;;;30.80;99.90;;;;;;5092505;28;20764;-58
2023/06/21 11:24:58;;;;;;;9.83;8.93;;;30.80;99.90;;;;;;5093464;28;20229;-58
2023/06/21 11:27:27;;;;;;;9.77;8.63;;;30.50;99.90;;;;;;5092499;28;20240;-58
2023/06/21 11:30:00;;;;;;;9.63;8.77;;;30.40;99.90;;;;;;5092911;28;20756;-58
2023/06/21 11:32:30;;;;;;;9.63;8.67;;;30.00;99.90;;;;;;5078699;28;20228;-58
2023/06/21 11:35:00;;;;;;;8.77;8.07;;;29.60;99.90;;;;;;5072845;28;20224;-58
2023/06/21 11:37:32;;;;;;;8.77;7.97;;;29.90;99.90;;;;;;5072599;28;20232;-58
2023/06/21 11:40:03;;;;;;;8.77;8.03;;;30.00;99.90;;;;;;5054674;28;20319;-58
2023/06/21 11:42:35;;;;;;;8.03;7.13;;;29.90;99.90;;;;;;5072594;28;20217;-58
2023/06/21 11:45:20;;;;;;;7.27;6.40;;;29.60;99.90;;;;;;5072736;28;20217;-58
2023/06/21 11:48:04;;;;;;;5.20;4.80;;;29.40;99.90;;;;;;5096921;28;20219;-58
2023/06/21 11:50:34;;;;;;;6.50;4.30;;;30.40;99.90;;;;;;5108766;28;20220;-58
2023/06/21 11:53:20;;;;;;;5.73;5.20;;;31.40;99.90;;;;;;5113146;28;20705;-57
2023/06/21 11:55:52;;;;;;;4.17;3.70;;;31.60;99.90;;;;;;5094370;28;20598;-58
2023/06/21 11:58:21;;;;;;;4.60;4.17;;;32.30;99.90;;;;;;5092791;28;20230;-58
2023/06/21 12:00:50;;;;;;;6.13;4.63;;;32.50;99.90;;;;;;5092143;28;20313;-57
2023/06/21 12:03:21;;;;;;;5.00;4.50;;;32.30;99.90;;;;;;5076380;28;20226;-59
2023/06/21 12:05:52;;;;;;;6.03;5.20;;;31.90;99.90;;;;;;5072369;28;20241;-58
2023/06/21 12:08:22;;;;;;;5.73;5.07;;;30.80;99.90;;;;;;5072060;28;20225;-58
2023/06/21 12:10:52;;;;;;;6.87;4.80;;;30.00;99.90;;;;;;5092446;28;20696;-58
2023/06/21 12:13:21;;;;;;;5.37;4.73;;;29.90;99.90;;;;;;5092476;28;20348;-58
2023/06/21 12:15:52;;;;;;;5.17;4.67;;;29.80;99.90;;;;;;5092493;28;20218;-58
2023/06/21 12:18:21;;;;;;;6.00;4.93;;;29.70;99.90;;;;;;5099222;28;20614;-58
2023/06/21 12:20:50;;;;;;;7.13;4.53;;;29.40;99.90;;;;;;5109218;28;20273;-58
2023/06/21 12:23:22;;;;;;;6.60;5.30;;;29.40;99.90;;;;;;5112833;28;20217;-57
2023/06/21 12:25:53;;;;;;;7.40;4.20;;;29.40;99.90;;;;;;5092587;28;20243;-58
2023/06/21 12:28:22;;;;;;;6.13;4.77;;;29.80;99.90;;;;;;5092499;28;20619;-58
2023/06/21 12:30:53;;;;;;;4.77;4.03;;;29.40;99.90;;;;;;5092133;28;20664;-58
2023/06/21 12:33:24;;;;;;;7.23;5.67;;;29.10;99.90;;;;;;5075973;28;20224;-58
2023/06/21 12:35:52;;;;;;;6.33;5.10;;;28.90;99.90;;;;;;5056236;28;20311;-58
2023/06/21 12:38:21;;;;;;;5.20;4.70;;;28.80;99.90;;;;;;5077573;28;20303;-58
2023/06/21 12:40:55;;;;;;;6.03;5.30;;;29.20;99.90;;;;;;5103012;28;20220;-58
2023/06/21 12:43:37;;;;;;;4.97;4.57;;;29.10;99.90;;;;;;5095673;28;20239;-57
2023/06/21 12:46:06;;;;;;;8.30;5.23;;;29.00;99.90;;;;;;5088108;28;20234;-58
2023/06/21 12:48:35;;;;;;;6.87;5.27;;;29.00;99.90;;;;;;5103965;28;20693;-58
2023/06/21 12:51:03;;;;;;;6.43;5.03;;;29.20;99.90;;;;;;5075854;28;20684;-58